Time;durP1;ratioP1;P1;durP2;ratioP2;P2;SDS_P1;SDS_P2;PMS_P1;PMS_P2;Temp;Humidity;BMP_temperature;BMP_pressure;BME280_temperature;BME280_humidity;BME280_pressure;Samples;Min_cycle;Max_cycle;Signal;HPM_P1;HPM_P2
2022/09/07 00:00:55;;;;;;;4.05;1.70;;;;;;;19.54;nan;100053.28;5070878;28;20031;-85
2022/09/07 00:03:21;;;;;;;2.45;1.42;;;;;;;19.57;nan;100049.34;5083522;28;20051;-85
2022/09/07 00:05:48;;;;;;;3.55;1.70;;;;;;;19.58;nan;100027.69;5067148;28;20029;-84
2022/09/07 00:08:14;;;;;;;2.65;1.88;;;;;;;;;;5061148;28;20039;-85
2022/09/07 00:10:39;;;;;;;4.03;1.60;;;;;;;19.66;nan;100115.91;5070529;28;20100;-86
2022/09/07 00:13:05;;;;;;;2.03;1.30;;;;;;;;;;5073938;28;20075;-84
2022/09/07 00:15:32;;;;;;;2.67;1.23;;;;;;;19.75;nan;100099.56;5070268;28;20096;-83
2022/09/07 00:17:57;;;;;;;2.33;1.45;;;;;;;;;;5072966;28;20146;-84
2022/09/07 00:20:22;;;;;;;2.23;1.53;;;;;;;;;;5071485;28;20093;-84
2022/09/07 00:22:48;;;;;;;1.57;1.20;;;;;;;19.78;nan;100069.59;5072231;28;20517;-85
2022/09/07 00:25:13;;;;;;;3.53;1.70;;;;;;;19.78;nan;100097.22;5073715;28;20068;-85
2022/09/07 00:27:39;;;;;;;1.83;1.40;;;;;;;;;;5067535;28;20490;-86
2022/09/07 00:30:05;;;;;;;3.08;1.98;;;;;;;19.78;nan;100065.03;5085501;28;20039;-85
2022/09/07 00:32:30;;;;;;;3.58;2.17;;;;;;;;;;5074419;28;20043;-85
2022/09/07 00:34:55;;;;;;;2.93;1.80;;;;;;;;;;5089924;28;20031;-84
2022/09/07 00:37:20;;;;;;;3.60;2.00;;;;;;;19.83;nan;100164.47;5072749;28;20387;-85
2022/09/07 00:39:46;;;;;;;3.15;1.60;;;;;;;19.84;nan;100048.06;5074120;28;20287;-84
2022/09/07 00:42:11;;;;;;;2.70;1.88;;;;;;;;;;5070545;28;20376;-85
2022/09/07 00:44:43;;;;;;;2.90;1.83;;;;;;;19.82;nan;100060.06;5070326;28;20047;-86
2022/09/07 00:47:14;;;;;;;3.85;1.83;;;;;;;;;;5064557;28;20282;-84
2022/09/07 00:49:42;;;;;;;2.70;2.03;;;;;;;19.89;nan;100142.13;5085640;28;20062;-85
2022/09/07 00:52:10;;;;;;;2.60;1.73;;;;;;;19.94;nan;100009.94;5071585;28;20059;-85
2022/09/07 00:54:40;;;;;;;2.22;1.60;;;;;;;;;;5067987;28;20032;-85
2022/09/07 00:57:06;;;;;;;2.85;1.70;;;;;;;;;;5073151;28;20032;-85
2022/09/07 00:59:38;;;;;;;2.38;1.42;;;;;;;20.01;nan;100020.59;5059614;28;20040;-85
2022/09/07 01:02:03;;;;;;;2.63;1.50;;;;;;;;;;5080051;28;20689;-87
2022/09/07 01:04:29;;;;;;;2.55;1.70;;;;;;;;;;5084552;28;20040;-85
2022/09/07 01:06:55;;;;;;;3.15;1.52;;;;;;;;;;5069013;28;20040;-85
2022/09/07 01:09:21;;;;;;;2.35;1.83;;;;;;;19.86;nan;100121.09;5065470;28;20040;-85
2022/09/07 01:11:49;;;;;;;3.00;2.00;;;;;;;19.79;nan;100017.59;5069515;28;20032;-85
2022/09/07 01:14:18;;;;;;;2.38;1.60;;;;;;;19.79;nan;100033.69;5086861;28;20115;-85
2022/09/07 01:16:44;;;;;;;2.67;1.58;;;;;;;19.82;nan;100047.44;5075219;28;20040;-84
2022/09/07 01:19:25;;;;;;;2.07;1.50;;;;;;;;;;5070317;28;20159;-84
2022/09/07 01:22:05;;;;;;;1.90;1.33;;;;;;;;;;5070443;28;20278;-84
2022/09/07 01:24:44;;;;;;;3.53;1.75;;;;;;;;;;5075904;28;20032;-84
2022/09/07 01:27:34;;;;;;;2.55;1.50;;;;;;;19.89;nan;100066.97;5069588;28;20043;-85
2022/09/07 01:30:13;;;;;;;2.67;1.33;;;;;;;;;;5071796;28;20028;-85
2022/09/07 01:33:03;;;;;;;3.95;1.88;;;;;;;19.82;nan;100039.41;5065816;28;20048;-87
2022/09/07 01:35:37;;;;;;;2.65;1.50;;;;;;;19.76;nan;100066.31;5083080;28;20048;-85
2022/09/07 01:38:13;;;;;;;4.45;2.13;;;;;;;19.78;nan;100058.84;5085953;28;20085;-85
2022/09/07 01:41:02;;;;;;;2.35;1.60;;;;;;;;;;5070080;28;20140;-86
2022/09/07 01:43:52;;;;;;;2.13;1.40;;;;;;;19.76;nan;100061.78;5079284;28;20032;-84
2022/09/07 01:46:32;;;;;;;2.38;1.80;;;;;;;19.78;nan;100080.31;5065501;28;20703;-84
2022/09/07 01:49:08;;;;;;;5.13;1.92;;;;;;;19.83;nan;100083.16;5075776;28;20112;-85
2022/09/07 01:51:38;;;;;;;3.10;1.70;;;;;;;19.89;nan;100088.44;5083253;28;20041;-86
2022/09/07 01:54:15;;;;;;;2.85;2.00;;;;;;;20.02;nan;100073.22;5061110;28;20487;-85
2022/09/07 01:56:43;;;;;;;3.05;1.77;;;;;;;;;;5077074;28;20039;-84
2022/09/07 01:59:17;;;;;;;3.95;2.13;;;;;;;20.06;nan;100163.81;5063923;28;20059;-84
2022/09/07 02:01:49;;;;;;;4.25;2.13;;;;;;;;;;5067450;28;20050;-84
2022/09/07 02:04:20;;;;;;;5.40;2.00;;;;;;;20.14;nan;100171.59;5067179;28;20033;-84
2022/09/07 02:06:52;;;;;;;5.68;1.75;;;;;;;;;;5083476;28;20068;-84
2022/09/07 02:09:26;;;;;;;4.50;2.17;;;;;;;20.17;nan;100190.97;5068974;28;20032;-83
2022/09/07 02:11:53;;;;;;;5.22;2.30;;;;;;;20.14;nan;100198.44;5064554;28;20059;-85
2022/09/07 02:14:23;;;;;;;3.75;2.63;;;;;;;;;;5063410;28;20040;-84
2022/09/07 02:16:55;;;;;;;6.40;3.00;;;;;;;;;;5067085;28;20048;-83
2022/09/07 02:19:23;;;;;;;5.70;3.25;;;;;;;19.22;nan;100178.56;5059581;28;20067;-82
2022/09/07 02:21:55;;;;;;;4.32;2.83;;;;;;;;;;5082747;28;20082;-83
2022/09/07 02:24:25;;;;;;;;;;;;;;;18.90;nan;100186.59;5063614;28;20048;-85
2022/09/07 02:26:53;;;;;;;6.53;3.78;;;;;;;18.73;nan;100359.53;5085350;28;19920;-88
2022/09/07 02:29:19;;;;;;;5.68;3.60;;;;;;;18.59;nan;100340.81;5071873;28;20040;-85
2022/09/07 02:31:46;;;;;;;4.50;3.28;;;;;;;18.50;nan;100354.63;5073382;28;20036;-85
2022/09/07 02:34:12;;;;;;;5.20;3.22;;;;;;;18.43;nan;100336.72;5064974;28;20032;-86
2022/09/07 02:36:45;;;;;;;7.30;4.20;;;;;;;18.34;nan;100327.25;5062252;28;20031;-85
2022/09/07 02:39:11;;;;;;;6.07;4.20;;;;;;;18.23;nan;100327.88;5057194;28;20028;-86
2022/09/07 02:41:39;;;;;;;6.95;4.63;;;;;;;18.13;nan;100330.16;5076926;28;20058;-86
2022/09/07 02:44:12;;;;;;;10.20;6.43;;;;;;;18.08;nan;100300.50;5061095;28;20021;-86
2022/09/07 02:46:54;;;;;;;9.73;5.65;;;;;;;17.97;nan;100285.88;5068941;28;20249;-86
2022/09/07 02:49:38;;;;;;;6.68;4.78;;;;;;;17.86;nan;100268.63;5070163;28;20082;-85
2022/09/07 02:52:22;;;;;;;6.95;5.40;;;;;;;17.80;nan;100264.94;5068983;28;20044;-86
2022/09/07 02:55:09;;;;;;;7.32;5.00;;;;;;;17.81;nan;100244.34;5084880;28;20036;-85
2022/09/07 02:58:08;;;;;;;8.95;6.00;;;;;;;17.83;nan;100245.78;5080632;28;20037;-84
2022/09/07 03:00:42;;;;;;;13.25;6.47;;;;;;;17.78;nan;100221.47;5075905;28;20040;-82
2022/09/07 03:03:22;;;;;;;10.55;6.25;;;;;;;17.82;nan;100205.84;5077349;28;20126;-84
2022/09/07 03:06:13;;;;;;;10.05;5.78;;;;;;;17.76;nan;100180.75;5068810;28;20699;-84
2022/09/07 03:08:46;;;;;;;10.60;6.28;;;;;;;17.72;nan;100171.47;5075341;28;20041;-83
2022/09/07 03:11:13;;;;;;;9.65;6.13;;;;;;;17.69;nan;100168.41;5068276;28;20085;-82
2022/09/07 03:13:38;;;;;;;8.10;5.70;;;;;;;17.63;nan;100165.50;5076660;28;20040;-82
2022/09/07 03:16:04;;;;;;;9.57;6.10;;;;;;;17.63;nan;100178.88;5062607;28;20039;-82
2022/09/07 03:18:29;;;;;;;8.48;5.13;;;;;;;17.62;nan;100173.75;5056021;28;20032;-84
2022/09/07 03:20:55;;;;;;;5.95;4.47;;;;;;;17.65;nan;100186.72;5082125;28;20032;-83
2022/09/07 03:23:20;;;;;;;9.60;4.93;;;;;;;17.71;nan;100188.56;5078052;28;20119;-84
2022/09/07 03:25:49;;;;;;;5.55;3.90;;;;;;;17.78;nan;100204.59;5075363;28;20032;-85
2022/09/07 03:28:15;;;;;;;9.63;4.53;;;;;;;17.84;nan;100214.50;5070480;28;20032;-83
2022/09/07 03:30:46;;;;;;;6.78;4.20;;;;;;;17.89;nan;100205.84;5075753;28;20105;-84
2022/09/07 03:33:14;;;;;;;6.20;3.92;;;;;;;17.96;nan;100207.50;5070938;28;20044;-85
2022/09/07 03:35:45;;;;;;;5.55;3.65;;;;;;;18.02;nan;100205.84;5074445;28;20490;-84
2022/09/07 03:38:10;;;;;;;5.50;3.40;;;;;;;18.01;nan;100202.34;5089256;28;20060;-84
2022/09/07 03:40:36;;;;;;;4.45;2.80;;;;;;;18.00;nan;100197.22;5089112;28;20498;-84
2022/09/07 03:43:02;;;;;;;4.20;2.60;;;;;;;17.96;nan;100206.66;5068648;28;20036;-83
2022/09/07 03:45:27;;;;;;;4.18;3.47;;;;;;;17.94;nan;100214.91;5091983;28;20115;-83
2022/09/07 03:47:52;;;;;;;3.80;3.03;;;;;;;17.93;nan;100223.16;5085383;28;20131;-84
2022/09/07 03:50:18;;;;;;;4.97;3.22;;;;;;;17.93;nan;100225.81;5069696;28;20526;-83
2022/09/07 03:52:43;;;;;;;3.97;2.95;;;;;;;17.90;nan;100219.03;5072073;28;20066;-83
2022/09/07 03:55:08;;;;;;;3.60;2.50;;;;;;;17.92;nan;100224.16;5085173;28;20511;-83
2022/09/07 03:57:34;;;;;;;3.65;2.70;;;;;;;17.89;nan;100214.69;5073601;28;20042;-84
2022/09/07 03:59:59;;;;;;;3.28;2.50;;;;;;;17.85;nan;100216.13;5069380;28;20047;-83
2022/09/07 04:02:24;;;;;;;5.15;2.75;;;;;;;17.83;nan;100216.34;5083551;28;20027;-84
2022/09/07 04:04:50;;;;;;;5.20;3.05;;;;;;;17.83;nan;100212.88;5084938;28;20119;-84
2022/09/07 04:07:15;;;;;;;4.28;3.20;;;;;;;17.83;nan;100207.53;5086994;28;20071;-84
2022/09/07 04:09:41;;;;;;;4.63;3.00;;;;;;;17.85;nan;100208.09;5071884;28;20062;-84
2022/09/07 04:12:06;;;;;;;4.18;2.60;;;;;;;17.88;nan;100220.28;5084343;28;20430;-83
2022/09/07 04:14:32;;;;;;;3.17;2.60;;;;;;;17.88;nan;100222.94;5072916;28;20040;-84
2022/09/07 04:16:57;;;;;;;4.07;2.70;;;;;;;17.89;nan;100222.72;5072879;28;20043;-85
2022/09/07 04:19:22;;;;;;;5.60;3.05;;;;;;;17.90;nan;100223.53;5068839;28;20256;-85
2022/09/07 04:21:48;;;;;;;5.50;3.50;;;;;;;17.91;nan;100219.84;5090399;28;20709;-84
2022/09/07 04:24:16;;;;;;;5.78;3.10;;;;;;;17.93;nan;100218.59;5066968;28;20032;-84
2022/09/07 04:26:42;;;;;;;5.40;3.20;;;;;;;17.97;nan;100227.03;5069939;28;20032;-84
2022/09/07 04:29:08;;;;;;;5.60;2.95;;;;;;;18.02;nan;100238.78;5064390;28;20029;-84
2022/09/07 04:31:34;;;;;;;4.75;3.30;;;;;;;18.06;nan;100233.81;5057547;28;20031;-84
2022/09/07 04:34:00;;;;;;;9.18;4.82;;;;;;;18.10;nan;100247.63;5072478;28;20037;-82
2022/09/07 04:36:25;;;;;;;7.95;4.25;;;;;;;18.10;nan;100228.88;5074079;28;20048;-86
2022/09/07 04:38:56;;;;;;;4.75;3.75;;;;;;;18.10;nan;100228.88;5068797;28;20044;-86
2022/09/07 04:41:22;;;;;;;5.70;2.97;;;;;;;18.07;nan;100230.13;5076038;28;20040;-85
2022/09/07 04:43:52;;;;;;;3.67;2.85;;;;;;;18.02;nan;100228.06;5073111;28;20100;-84
2022/09/07 04:46:26;;;;;;;3.53;2.72;;;;;;;17.98;nan;100239.41;5078205;28;20113;-84
2022/09/07 04:48:58;;;;;;;4.63;2.85;;;;;;;17.93;nan;100229.31;5059680;28;20562;-85
2022/09/07 04:51:29;;;;;;;4.32;2.60;;;;;;;17.90;nan;100237.75;5072139;28;20032;-84
2022/09/07 04:53:56;;;;;;;3.63;2.70;;;;;;;17.85;nan;100234.84;5061515;28;20048;-85
2022/09/07 04:56:22;;;;;;;4.00;2.65;;;;;;;17.85;nan;100242.06;5068255;28;20036;-84
2022/09/07 04:58:48;;;;;;;3.47;2.38;;;;;;;17.82;nan;100243.31;5073737;28;20604;-84
2022/09/07 05:01:16;;;;;;;3.92;2.50;;;;;;;17.79;nan;100241.03;5061672;28;20036;-84
2022/09/07 05:03:42;;;;;;;3.15;2.13;;;;;;;17.76;nan;100238.75;5073389;28;20032;-83
2022/09/07 05:06:09;;;;;;;4.53;2.33;;;;;;;17.73;nan;100244.50;5059973;28;20722;-84
2022/09/07 05:08:36;;;;;;;3.20;1.80;;;;;;;17.68;nan;100250.47;5072896;28;20060;-84
2022/09/07 05:11:02;;;;;;;5.05;2.20;;;;;;;17.63;nan;100247.59;5061165;28;20036;-83
2022/09/07 05:13:30;;;;;;;2.70;1.80;;;;;;;17.60;nan;100240.81;5076613;28;20052;-85
2022/09/07 05:15:55;;;;;;;3.70;2.38;;;;;;;17.61;nan;100258.50;5075490;28;20032;-85
2022/09/07 05:18:20;;;;;;;4.43;2.50;;;;;;;17.65;nan;100258.09;5063928;28;20131;-85
2022/09/07 05:20:46;;;;;;;3.05;2.13;;;;;;;17.67;nan;100258.72;5057252;28;20039;-84
2022/09/07 05:23:11;;;;;;;3.28;2.40;;;;;;;17.68;nan;100257.66;5079912;28;20040;-85
2022/09/07 05:25:42;;;;;;;4.43;2.47;;;;;;;17.69;nan;100262.00;5061400;28;20487;-84
2022/09/07 05:28:08;;;;;;;3.47;2.20;;;;;;;17.70;nan;100274.34;5077810;28;20037;-83
2022/09/07 05:30:33;;;;;;;4.03;2.22;;;;;;;17.70;nan;100274.34;5062262;28;20039;-84
2022/09/07 05:32:59;;;;;;;3.15;2.15;;;;;;;17.71;nan;100273.28;5069793;28;20044;-84
2022/09/07 05:35:24;;;;;;;4.28;2.63;;;;;;;17.73;nan;100268.56;5074304;28;20070;-85
2022/09/07 05:37:49;;;;;;;4.68;3.05;;;;;;;17.75;nan;100278.03;5085406;28;20398;-84
2022/09/07 05:40:15;;;;;;;3.38;2.05;;;;;;;17.76;nan;100274.34;5062666;28;20069;-84
2022/09/07 05:42:40;;;;;;;3.67;3.00;;;;;;;17.75;nan;100279.88;5074653;28;20426;-84
2022/09/07 05:45:06;;;;;;;3.03;2.20;;;;;;;17.77;nan;100283.19;5086312;28;20036;-84
2022/09/07 05:47:32;;;;;;;4.35;2.40;;;;;;;17.80;nan;100280.97;5066301;28;20044;-84
2022/09/07 05:49:57;;;;;;;2.92;2.30;;;;;;;17.94;nan;100283.63;5060558;28;20087;-84
2022/09/07 05:52:22;;;;;;;2.80;1.85;;;;;;;18.14;nan;100286.28;5058022;28;20044;-84
2022/09/07 05:54:48;;;;;;;4.70;2.65;;;;;;;18.42;nan;100281.53;5075928;28;20111;-83
2022/09/07 05:57:13;;;;;;;;;;;;;;;18.79;nan;100284.53;5067999;28;20102;-83
2022/09/07 05:59:39;;;;;;;3.25;1.70;;;;;;;19.23;nan;100288.25;5056656;28;19965;-83
2022/09/07 06:02:04;;;;;;;2.67;2.13;;;;;;;19.66;nan;100297.47;5058283;28;20494;-84
2022/09/07 06:04:30;;;;;;;2.40;1.63;;;;;;;20.05;nan;100299.06;5088139;28;20644;-83
2022/09/07 06:06:55;;;;;;;3.97;1.98;;;;;;;20.43;nan;100287.38;5081393;28;20537;-83
2022/09/07 06:09:21;;;;;;;3.25;1.83;;;;;;;20.80;nan;100282.00;5071716;28;20040;-83
2022/09/07 06:11:46;;;;;;;2.25;1.42;;;;;;;21.19;nan;100285.25;5064916;28;20068;-83
2022/09/07 06:14:11;;;;;;;2.10;1.45;;;;;;;21.49;nan;100295.19;5081996;28;20039;-84
2022/09/07 06:16:37;;;;;;;3.38;1.50;;;;;;;21.87;nan;100292.13;5065228;28;20036;-84
2022/09/07 06:19:06;;;;;;;3.42;1.38;;;;;;;22.18;nan;100292.84;5071993;28;20086;-83
2022/09/07 06:21:36;;;;;;;2.88;1.20;;;;;;;22.44;nan;100292.41;5065544;28;20032;-85
2022/09/07 06:24:03;;;;;;;1.73;1.00;;;;;;;22.79;nan;100285.31;5082974;28;20400;-84
2022/09/07 06:26:28;;;;;;;3.90;1.48;;;;;;;23.03;nan;100295.00;5078798;28;20036;-85
2022/09/07 06:28:54;;;;;;;3.22;1.30;;;;;;;23.18;nan;100296.38;5062991;28;20055;-84
2022/09/07 06:31:21;;;;;;;4.07;1.77;;;;;;;23.41;nan;100295.44;5081607;28;20043;-88
2022/09/07 06:33:49;;;;;;;2.65;1.40;;;;;;;23.63;nan;100298.25;5080145;28;20163;-87
2022/09/07 06:36:17;;;;;;;3.47;1.48;;;;;;;23.84;nan;100305.66;5075743;28;20032;-85
2022/09/07 06:38:43;;;;;;;2.72;1.65;;;;;;;23.99;nan;100306.97;5076627;28;20055;-85
2022/09/07 06:41:12;;;;;;;2.40;1.40;;;;;;;23.95;nan;100304.78;5067499;28;20032;-87
2022/09/07 06:43:38;;;;;;;3.38;1.40;;;;;;;24.00;nan;100312.13;5084991;28;20448;-85
2022/09/07 06:46:04;;;;;;;4.20;1.67;;;;;;;23.83;nan;100305.91;5068081;28;20039;-87
2022/09/07 06:48:30;;;;;;;4.07;1.63;;;;;;;23.57;nan;100308.13;5079124;28;20391;-86
2022/09/07 06:51:04;;;;;;;2.75;1.40;;;;;;;23.31;nan;100314.94;5084364;28;20095;-85
2022/09/07 06:53:32;;;;;;;4.95;1.88;;;;;;;23.01;nan;100302.50;5075523;28;20140;-85
2022/09/07 06:55:58;;;;;;;3.65;1.70;;;;;;;22.68;nan;100314.75;5076332;28;20487;-86
2022/09/07 06:58:26;;;;;;;3.30;1.70;;;;;;;22.45;nan;100307.53;5067522;28;20086;-86
2022/09/07 07:00:53;;;;;;;3.50;2.00;;;;;;;22.11;nan;100319.91;5077527;28;20054;-86
2022/09/07 07:03:18;;;;;;;6.20;2.20;;;;;;;21.77;nan;100311.53;5086863;28;20045;-83
2022/09/07 07:05:53;;;;;;;3.92;2.00;;;;;;;21.58;nan;100312.66;5082217;28;20641;-83
2022/09/07 07:08:20;;;;;;;4.10;2.15;;;;;;;21.38;nan;100305.69;5074917;28;20040;-84
2022/09/07 07:10:45;;;;;;;4.38;2.15;;;;;;;21.33;nan;100302.84;5079535;28;20040;-86
2022/09/07 07:13:11;;;;;;;4.05;2.17;;;;;;;21.30;nan;100300.59;5083029;28;20051;-85
2022/09/07 07:15:38;;;;;;;2.42;1.70;;;;;;;21.55;nan;100300.50;5064047;28;20036;-84
2022/09/07 07:18:03;;;;;;;5.45;2.00;;;;;;;21.83;nan;100291.78;5072329;28;20124;-85
2022/09/07 07:20:29;;;;;;;3.40;1.73;;;;;;;22.44;nan;100300.47;5080141;28;20515;-83
2022/09/07 07:22:54;;;;;;;3.78;1.92;;;;;;;23.02;nan;100298.75;5062312;28;20040;-85
2022/09/07 07:25:20;;;;;;;3.22;1.50;;;;;;;23.63;nan;100306.34;5082783;28;20495;-84
2022/09/07 07:27:45;;;;;;;5.00;1.50;;;;;;;24.12;nan;100301.22;5069986;28;20066;-85
2022/09/07 07:30:15;;;;;;;3.33;1.50;;;;;;;24.55;nan;100305.09;5069837;28;20040;-85
2022/09/07 07:32:42;;;;;;;3.80;1.77;;;;;;;24.88;nan;100312.31;5063013;28;20039;-83
2022/09/07 07:35:08;;;;;;;3.88;1.83;;;;;;;25.10;nan;100312.31;5065173;28;20158;-86
2022/09/07 07:37:35;;;;;;;3.58;1.48;;;;;;;25.36;nan;100305.31;5069241;28;20043;-86
2022/09/07 07:40:03;;;;;;;3.80;1.65;;;;;;;25.56;nan;100298.47;5082181;28;20222;-85
2022/09/07 07:42:28;;;;;;;5.82;2.03;;;;;;;25.71;nan;100317.53;5072750;28;20036;-84
2022/09/07 07:44:54;;;;;;;3.50;1.48;;;;;;;25.96;nan;100300.72;5080499;28;20172;-86
2022/09/07 07:47:20;;;;;;;5.40;1.52;;;;;;;26.08;nan;100310.53;5086492;28;20036;-85
2022/09/07 07:49:45;;;;;;;2.72;1.60;;;;;;;26.26;nan;100312.84;5084284;28;20037;-85
2022/09/07 07:52:10;;;;;;;2.90;1.40;;;;;;;26.55;nan;100317.91;5069192;28;20086;-85
2022/09/07 07:54:36;;;;;;;6.28;1.50;;;;;;;26.96;nan;100326.25;5068135;28;20043;-85
2022/09/07 07:57:01;;;;;;;4.50;1.58;;;;;;;27.13;nan;100332.28;5081669;28;20040;-85
2022/09/07 07:59:27;;;;;;;3.97;1.50;;;;;;;26.89;nan;100332.75;5059905;28;20036;-84
2022/09/07 08:01:52;;;;;;;6.35;1.70;;;;;;;26.64;nan;100335.31;5083560;28;20036;-85
2022/09/07 08:04:18;;;;;;;3.88;1.60;;;;;;;26.82;nan;100337.59;5061996;28;20785;-84
2022/09/07 08:06:43;;;;;;;3.45;1.30;;;;;;;27.11;nan;100334.44;5064645;28;20418;-86
2022/09/07 08:09:10;;;;;;;2.80;1.30;;;;;;;27.37;nan;100335.38;5078751;28;20457;-86
2022/09/07 08:11:36;;;;;;;2.50;1.40;;;;;;;27.59;nan;100346.00;5062057;28;20102;-83
2022/09/07 08:14:04;;;;;;;3.10;1.20;;;;;;;27.98;nan;100355.56;5073602;28;20426;-83
2022/09/07 08:16:30;;;;;;;4.07;1.48;;;;;;;28.06;nan;100347.69;5061003;28;20054;-84
2022/09/07 08:18:56;;;;;;;4.78;1.50;;;;;;;28.27;nan;100344.94;5081460;28;20044;-84
2022/09/07 08:21:21;;;;;;;2.85;1.30;;;;;;;28.58;nan;100352.00;5075115;28;20032;-83
2022/09/07 08:23:46;;;;;;;5.73;1.60;;;;;;;28.98;nan;100360.28;5065382;28;20597;-85
2022/09/07 08:26:12;;;;;;;4.23;1.50;;;;;;;29.10;nan;100360.00;5070499;28;20291;-86
2022/09/07 08:28:40;;;;;;;3.97;1.60;;;;;;;29.11;nan;100361.63;5068789;28;20271;-83
2022/09/07 08:31:07;;;;;;;4.97;1.50;;;;;;;29.50;nan;100361.66;5069899;28;20035;-84
2022/09/07 08:33:37;;;;;;;5.32;1.50;;;;;;;29.50;nan;100358.94;5073737;28;20534;-84
2022/09/07 08:36:06;;;;;;;4.93;1.80;;;;;;;29.78;nan;100362.88;5068319;28;20037;-85
2022/09/07 08:38:33;;;;;;;5.72;1.77;;;;;;;30.00;nan;100364.34;5060746;28;20534;-82
2022/09/07 08:41:00;;;;;;;3.92;1.80;;;;;;;30.10;nan;100355.25;5081236;28;20093;-87
2022/09/07 08:43:37;;;;;;;4.63;1.70;;;;;;;30.38;nan;100359.94;5092699;28;20064;-83
2022/09/07 08:46:20;;;;;;;3.35;1.42;;;;;;;30.57;nan;100361.94;5069363;28;20040;-85
2022/09/07 08:48:46;;;;;;;3.88;1.70;;;;;;;30.81;nan;100356.47;5078275;28;20155;-87
2022/09/07 08:51:18;;;;;;;4.38;1.50;;;;;;;31.09;nan;100373.91;5062306;28;20033;-82
2022/09/07 08:53:49;;;;;;;5.25;1.60;;;;;;;31.41;nan;100366.94;5067590;28;20087;-86
2022/09/07 08:56:25;;;;;;;3.33;1.42;;;;;;;31.58;nan;100359.03;5054276;22;20059;-72
2022/09/07 08:58:53;;;;;;;5.32;1.40;;;;;;;32.16;nan;100358.66;5027910;28;20042;-71
2022/09/07 09:01:32;;;;;;;2.35;1.23;;;;;;;32.55;nan;100367.56;5024917;28;20061;-71
2022/09/07 09:03:57;;;;;;;3.47;1.20;;;;;;;33.17;nan;100364.41;5034539;28;20056;-72
2022/09/07 09:06:34;;;;;;;4.85;1.48;;;;;;;33.65;nan;100374.06;5033167;28;20404;-71
2022/09/07 09:09:36;;;;;;;4.97;1.25;;;;;;;34.12;nan;100374.59;5026257;28;20037;-72
2022/09/07 09:12:22;;;;;;;3.80;1.45;;;;;;;34.43;nan;100361.66;5029178;28;20053;-72
2022/09/07 09:15:07;;;;;;;4.30;1.48;;;;;;;34.77;nan;100373.13;5063932;28;20045;-71
2022/09/07 09:17:45;;;;;;;4.45;1.50;;;;;;;35.04;nan;100374.81;5029454;28;20055;-71
2022/09/07 09:20:16;;;;;;;6.35;1.60;;;;;;;35.09;nan;100366.44;5027485;28;20081;-71
2022/09/07 09:22:42;;;;;;;7.05;1.60;;;;;;;35.24;nan;100360.50;5026316;28;20044;-74
2022/09/07 09:25:20;;;;;;;2.47;1.02;;;;;;;35.46;nan;100367.78;5033153;28;20037;-71
2022/09/07 09:27:47;;;;;;;4.40;1.40;;;;;;;35.78;nan;100367.63;5029952;28;20508;-71
2022/09/07 09:30:16;;;;;;;3.20;1.10;;;;;;;36.15;nan;100355.94;5039481;28;20045;-71
2022/09/07 09:32:44;;;;;;;3.25;1.02;;;;;;;36.73;nan;100361.06;5026822;28;20049;-71
2022/09/07 09:35:12;;;;;;;3.22;1.25;;;;;;;36.99;nan;100353.47;5024912;28;20037;-71
2022/09/07 09:37:39;;;;;;;2.95;1.10;;;;;;;37.16;nan;100357.25;5023992;28;20049;-71
2022/09/07 09:40:08;;;;;;;2.05;0.98;;;;;;;37.93;nan;100348.69;5026036;28;20033;-68
2022/09/07 09:42:34;;;;;;;2.47;0.93;;;;;;;38.56;nan;100345.69;5041535;28;20048;-69
2022/09/07 09:45:11;;;;;;;2.88;1.17;;;;;;;38.82;nan;100343.38;5046132;28;20063;-68
2022/09/07 09:47:37;;;;;;;3.80;1.38;;;;;;;39.16;nan;100341.25;5047071;28;20127;-68
2022/09/07 09:50:34;;;;;;;3.38;1.00;;;;;;;39.10;nan;100330.81;5042992;28;20045;-69
2022/09/07 09:53:01;;;;;;;2.55;1.00;;;;;;;38.51;nan;100340.41;5048666;28;20135;-69
2022/09/07 09:55:34;;;;;;;3.03;1.17;;;;;;;39.05;nan;100329.09;5025686;28;20482;-68
2022/09/07 09:58:02;;;;;;;4.20;1.27;;;;;;;39.59;nan;100330.66;5048474;28;20039;-68
2022/09/07 10:00:30;;;;;;;3.33;1.20;;;;;;;39.54;nan;100325.38;5047215;28;20033;-68
2022/09/07 10:03:04;;;;;;;;;;;;;;;39.70;nan;100327.03;5042218;28;20513;-68
2022/09/07 10:05:37;;;;;;;;;;;;;;;40.09;nan;100323.69;5047079;28;19995;-68
2022/09/07 10:08:05;;;;;;;;;;;;;;;39.90;nan;100321.63;5046593;28;20404;-68
2022/09/07 10:10:30;;;;;;;;;;;;;;;39.12;nan;100326.53;5043800;28;20043;-69
2022/09/07 10:12:56;;;;;;;2.25;1.00;;;;;;;39.25;nan;100328.09;5045847;28;20007;-68
2022/09/07 10:15:26;;;;;;;1.73;1.05;;;;;;;38.83;nan;100325.66;5027664;28;20108;-68
2022/09/07 10:17:51;;;;;;;2.03;1.00;;;;;;;36.88;nan;100319.16;5049172;28;20029;-68
2022/09/07 10:20:20;;;;;;;3.10;1.20;;;;;;;36.41;nan;100307.41;5048746;28;20167;-68
2022/09/07 10:22:57;;;;;;;3.60;1.13;;;;;;;37.79;nan;100302.06;5047939;28;21558;-68
2022/09/07 10:25:33;;;;;;;2.63;1.10;;;;;;;38.96;nan;100301.56;5042755;28;20072;-69
2022/09/07 10:28:04;;;;;;;2.35;1.00;;;;;;;39.86;nan;100295.84;5043313;28;20294;-69
2022/09/07 10:30:48;;;;;;;;;;;;;;;40.24;nan;100311.03;5027248;28;20030;-69
2022/09/07 10:33:31;;;;;;;3.13;1.00;;;;;;;40.92;nan;100302.34;5026559;28;19921;-67
2022/09/07 10:36:12;;;;;;;3.00;1.00;;;;;;;41.49;nan;100307.50;5033822;28;20322;-70
2022/09/07 10:38:53;;;;;;;4.05;1.20;;;;;;;41.68;nan;100306.69;5055727;28;20030;-68
2022/09/07 10:41:30;;;;;;;4.40;1.40;;;;;;;41.55;nan;100298.53;5025716;28;20034;-69
2022/09/07 10:43:56;;;;;;;2.17;1.00;;;;;;;41.59;nan;100298.59;5035321;28;20045;-68
2022/09/07 10:46:43;;;;;;;2.72;1.00;;;;;;;41.76;nan;100291.75;5035342;28;20034;-68
2022/09/07 10:49:21;;;;;;;2.67;1.08;;;;;;;42.13;nan;100288.44;5034754;28;20112;-69
2022/09/07 10:52:15;;;;;;;2.05;0.90;;;;;;;42.68;nan;100276.97;5036875;28;20046;-69
2022/09/07 10:54:54;;;;;;;2.33;0.93;;;;;;;43.18;nan;100275.66;5048129;28;20653;-69
2022/09/07 10:57:51;;;;;;;2.60;1.00;;;;;;;43.26;nan;100273.78;5023444;28;20060;-68
2022/09/07 11:00:20;;;;;;;2.70;1.17;;;;;;;43.37;nan;100271.13;5021330;28;20285;-69
2022/09/07 11:03:08;;;;;;;3.03;1.10;;;;;;;43.79;nan;100269.94;5028741;28;20524;-68
2022/09/07 11:05:39;;;;;;;4.25;1.20;;;;;;;44.29;nan;100200.69;5027854;28;20049;-68
2022/09/07 11:08:17;;;;;;;2.00;1.00;;;;;;;44.06;nan;100265.03;5026515;28;20033;-69
2022/09/07 11:11:05;;;;;;;2.03;0.90;;;;;;;44.32;nan;100266.81;5040926;28;20037;-69
2022/09/07 11:13:36;;;;;;;1.75;0.80;;;;;;;44.46;nan;100269.72;5050615;28;20045;-68
2022/09/07 11:16:10;;;;;;;4.00;1.23;;;;;;;44.38;nan;100270.03;5046771;28;20049;-68
2022/09/07 11:18:45;;;;;;;2.35;1.20;;;;;;;44.26;nan;100269.16;5044339;28;20057;-68
2022/09/07 11:21:16;;;;;;;2.28;1.05;;;;;;;44.08;nan;100271.03;5039732;28;20114;-68
2022/09/07 11:23:45;;;;;;;2.47;0.95;;;;;;;43.82;nan;100272.00;5040461;28;20050;-67
2022/09/07 11:26:26;;;;;;;2.83;1.00;;;;;;;41.08;nan;100271.78;5038107;28;20052;-68
2022/09/07 11:28:56;;;;;;;1.88;0.90;;;;;;;39.64;nan;100263.97;5038277;28;20041;-67
2022/09/07 11:31:30;;;;;;;2.22;1.20;;;;;;;40.74;nan;100263.16;5027143;28;20033;-68
2022/09/07 11:34:04;;;;;;;2.47;1.10;;;;;;;41.30;nan;100266.69;5030028;28;20502;-68
2022/09/07 11:36:43;;;;;;;4.22;1.35;;;;;;;42.11;nan;100261.03;5044423;28;20091;-67
2022/09/07 11:39:40;;;;;;;2.78;1.10;;;;;;;43.73;nan;100257.56;5028911;28;20364;-68
2022/09/07 11:42:29;;;;;;;2.95;1.30;;;;;;;42.84;nan;100252.59;5022716;28;20140;-68
2022/09/07 11:45:13;;;;;;;2.15;1.05;;;;;;;41.03;nan;100251.88;5030590;28;20451;-68
2022/09/07 11:47:52;;;;;;;2.63;0.98;;;;;;;41.08;nan;100246.81;5011109;28;20041;-68
2022/09/07 11:50:22;;;;;;;2.35;0.85;;;;;;;41.42;nan;100247.09;5030877;28;20038;-68
2022/09/07 11:52:52;;;;;;;1.83;0.98;;;;;;;41.47;nan;100232.91;5033440;28;20081;-68
2022/09/07 11:55:27;;;;;;;3.85;1.10;;;;;;;41.09;nan;100236.53;5037046;28;20132;-68
2022/09/07 11:58:16;;;;;;;4.72;1.05;;;;;;;39.79;nan;100218.91;5034207;28;20522;-68
2022/09/07 12:00:48;;;;;;;1.85;0.80;;;;;;;38.47;nan;100215.97;5060447;28;20037;-68
2022/09/07 12:03:22;;;;;;;1.80;0.90;;;;;;;38.22;nan;100221.50;5017332;28;20453;-68
2022/09/07 12:06:06;;;;;;;2.10;0.80;;;;;;;37.18;nan;100219.88;5029189;28;20083;-68
2022/09/07 12:09:01;;;;;;;2.90;0.80;;;;;;;36.80;nan;100220.81;5043176;28;20586;-68
2022/09/07 12:11:45;;;;;;;2.42;0.90;;;;;;;36.35;nan;100215.91;5049612;28;20041;-68